Terminal Aerodrome Forecast
Issued by NWS

Home | Current Version | Previous Version | Text Only | Print | Product List | Glossary On
Versions: 1 2 3 4 5 6 7 8 9 10 11 12 13 14 15 16
000
FTUS45 KTFX 202107 AAA
TAFBZN
TAF AMD
KBZN 202107Z 2021/2124 21011KT P6SM VCSH SCT050 OVC070
      TEMPO 2021/2024 -RA BKN050
     FM210000 22011KT P6SM VCSH SCT020 BKN050
      TEMPO 2100/2103 6SM -RA BKN020 OVC050
     FM210400 26006KT 6SM -SNRA SCT020 OVC035
     FM210900 VRB03KT P6SM SCT040 BKN120=

USA.gov is the U.S. government's official web portal to all federal, state and local government web resources and services.